Pagrindinis puslapis
METAR-TAF:

METAR-TAF

Oro uostai :

Nadžranas, Saudo Arabija

platuma: 17-37N, ilguma: 044-25E, Aukštis: 1212 m

Dabartinis oras

Ataskaita buvo paskelbta 45 minutes, ne 19:00 UTC
Vėjas 4 kt iš Šiaurės
Temperatūra 29°C
Drėgmė 12%
Slėgis 1014 hPa
Matomumas 10 km arba daugiau
nėra debesų žemiau 1500 m ir nėra kamuolinių lietaus debesų

METAR: OENG 221900Z 01004KT CAVOK 29/M03 Q1014 NOSIG

Laikas: 22:45 (19:45 UTC)

Prognozė

Ataskaita buvo paskelbta 8 valandos ir 45 minutes, ne 11:00 UTC
Prognozė galioja nuo 22 metu 12 UTC su 23 metu 18 UTC
Vėjas 15 kt iš Šiaurės
Matomumas: 6000 m
Laikinai
nuo 22 metu 12 UTC su 22 metu 18 UTC
Matomumas: 4000 m
Dulkes pustymas
Tapsmas
nuo 22 metu 18 UTC su 22 metu 20 UTC
Vėjas 3 kt nuo kintamojo kryptimis

TAF: OENG 221100Z 2212/2318 36015KT 6000 NSC TEMPO 2212/2218 4000 BLDU BECMG 2218/2220 VRB03KT

Orai ataskaitas ir orų prognozės (METAR, TAF).

turimą stotys yra geltonos ir raudonos taškus žemėlapyje.

Perkelti pele per norėdami pamatyti stoties vardą.

Tada spustelėkite, norėdami matyti oro stebėjimo ir prognozės.

Norėdami pakeisti žemėlapį: spustelėkite ant žalios mygtukų su juodo kryžiaus žemyn,; žalią mygtuką su brūkšneliu, jei norite nutolinti; arba žalių rodyklių gretimoms žemėlapius.


METAR-TAF: